sensor_id;sensor_type;location;lat;lon;timestamp;temperature;humidity
26952;DHT22;14507;52.418;13.398;2023-06-26T00:00:12;20.40;99.90
26952;DHT22;14507;52.418;13.398;2023-06-26T00:02:38;20.40;99.90
26952;DHT22;14507;52.418;13.398;2023-06-26T00:05:04;20.40;99.90
26952;DHT22;14507;52.418;13.398;2023-06-26T00:07:30;20.30;99.90
26952;DHT22;14507;52.418;13.398;2023-06-26T00:09:59;20.30;99.90
26952;DHT22;14507;52.418;13.398;2023-06-26T00:12:25;20.30;99.90
26952;DHT22;14507;52.418;13.398;2023-06-26T00:14:50;20.30;99.90
26952;DHT22;14507;52.418;13.398;2023-06-26T00:17:16;20.30;99.90
26952;DHT22;14507;52.418;13.398;2023-06-26T00:19:42;20.20;99.90
26952;DHT22;14507;52.418;13.398;2023-06-26T00:22:07;20.20;99.90
26952;DHT22;14507;52.418;13.398;2023-06-26T00:24:33;20.20;99.90
26952;DHT22;14507;52.418;13.398;2023-06-26T00:26:58;20.10;99.90
26952;DHT22;14507;52.418;13.398;2023-06-26T00:29:24;20.10;99.90
26952;DHT22;14507;52.418;13.398;2023-06-26T00:31:49;20.10;99.90
26952;DHT22;14507;52.418;13.398;2023-06-26T00:34:15;20.00;99.90
26952;DHT22;14507;52.418;13.398;2023-06-26T00:36:41;20.00;99.90
26952;DHT22;14507;52.418;13.398;2023-06-26T00:39:10;20.00;99.90
26952;DHT22;14507;52.418;13.398;2023-06-26T00:41:39;20.00;99.90
26952;DHT22;14507;52.418;13.398;2023-06-26T00:44:05;20.00;99.90
26952;DHT22;14507;52.418;13.398;2023-06-26T00:46:31;19.90;99.90
26952;DHT22;14507;52.418;13.398;2023-06-26T00:48:59;19.90;99.90
26952;DHT22;14507;52.418;13.398;2023-06-26T00:51:27;19.90;99.90
26952;DHT22;14507;52.418;13.398;2023-06-26T00:53:53;19.90;99.90
26952;DHT22;14507;52.418;13.398;2023-06-26T00:56:20;19.80;99.90
26952;DHT22;14507;52.418;13.398;2023-06-26T00:58:45;19.80;99.90
26952;DHT22;14507;52.418;13.398;2023-06-26T01:01:11;19.80;99.90
26952;DHT22;14507;52.418;13.398;2023-06-26T01:03:42;19.80;99.90
26952;DHT22;14507;52.418;13.398;2023-06-26T01:06:09;19.80;99.90
26952;DHT22;14507;52.418;13.398;2023-06-26T01:08:37;19.70;99.90
26952;DHT22;14507;52.418;13.398;2023-06-26T01:11:03;19.70;99.90
26952;DHT22;14507;52.418;13.398;2023-06-26T01:13:29;19.70;99.90
26952;DHT22;14507;52.418;13.398;2023-06-26T01:15:58;19.60;99.90
26952;DHT22;14507;52.418;13.398;2023-06-26T01:18:25;19.70;99.90
26952;DHT22;14507;52.418;13.398;2023-06-26T01:20:52;19.70;99.90
26952;DHT22;14507;52.418;13.398;2023-06-26T01:23:26;19.60;99.90
26952;DHT22;14507;52.418;13.398;2023-06-26T01:26:14;19.60;99.90
26952;DHT22;14507;52.418;13.398;2023-06-26T01:28:44;19.60;99.90
26952;DHT22;14507;52.418;13.398;2023-06-26T01:31:11;19.50;99.90
26952;DHT22;14507;52.418;13.398;2023-06-26T01:33:37;19.50;99.90
26952;DHT22;14507;52.418;13.398;2023-06-26T01:36:03;19.40;99.90
26952;DHT22;14507;52.418;13.398;2023-06-26T01:38:29;19.40;99.90
26952;DHT22;14507;52.418;13.398;2023-06-26T01:40:55;19.40;99.90
26952;DHT22;14507;52.418;13.398;2023-06-26T01:45:56;19.40;99.90
26952;DHT22;14507;52.418;13.398;2023-06-26T01:48:28;19.40;99.90
26952;DHT22;14507;52.418;13.398;2023-06-26T01:50:58;19.40;99.90
26952;DHT22;14507;52.418;13.398;2023-06-26T01:53:25;19.40;99.90
26952;DHT22;14507;52.418;13.398;2023-06-26T01:56:06;19.30;99.90
26952;DHT22;14507;52.418;13.398;2023-06-26T01:58:34;19.30;99.90
26952;DHT22;14507;52.418;13.398;2023-06-26T02:01:00;19.30;99.90
26952;DHT22;14507;52.418;13.398;2023-06-26T02:03:26;19.30;99.90
26952;DHT22;14507;52.418;13.398;2023-06-26T02:05:52;19.20;99.90
26952;DHT22;14507;52.418;13.398;2023-06-26T02:08:18;19.20;99.90
26952;DHT22;14507;52.418;13.398;2023-06-26T02:10:43;19.20;99.90
26952;DHT22;14507;52.418;13.398;2023-06-26T02:13:09;19.20;99.90
26952;DHT22;14507;52.418;13.398;2023-06-26T02:15:35;19.20;99.90
26952;DHT22;14507;52.418;13.398;2023-06-26T02:18:00;19.20;99.90
26952;DHT22;14507;52.418;13.398;2023-06-26T02:20:26;19.20;99.90
26952;DHT22;14507;52.418;13.398;2023-06-26T02:22:52;19.10;99.90
26952;DHT22;14507;52.418;13.398;2023-06-26T02:25:18;19.20;99.90
26952;DHT22;14507;52.418;13.398;2023-06-26T02:27:43;19.20;99.90
26952;DHT22;14507;52.418;13.398;2023-06-26T02:30:09;19.30;99.90
26952;DHT22;14507;52.418;13.398;2023-06-26T02:32:35;19.30;99.90
26952;DHT22;14507;52.418;13.398;2023-06-26T02:35:01;19.30;99.90
26952;DHT22;14507;52.418;13.398;2023-06-26T02:37:26;19.20;99.90
26952;DHT22;14507;52.418;13.398;2023-06-26T02:39:52;19.20;99.90
26952;DHT22;14507;52.418;13.398;2023-06-26T02:42:20;19.10;99.90
26952;DHT22;14507;52.418;13.398;2023-06-26T02:44:46;19.00;99.90
26952;DHT22;14507;52.418;13.398;2023-06-26T02:47:12;19.00;99.90
26952;DHT22;14507;52.418;13.398;2023-06-26T02:49:37;18.90;99.90
26952;DHT22;14507;52.418;13.398;2023-06-26T02:52:03;18.90;99.90
26952;DHT22;14507;52.418;13.398;2023-06-26T02:54:28;18.90;99.90
26952;DHT22;14507;52.418;13.398;2023-06-26T02:56:54;18.90;99.90
26952;DHT22;14507;52.418;13.398;2023-06-26T02:59:20;18.90;99.90
26952;DHT22;14507;52.418;13.398;2023-06-26T03:01:45;18.90;99.90
26952;DHT22;14507;52.418;13.398;2023-06-26T03:04:11;18.90;99.90
26952;DHT22;14507;52.418;13.398;2023-06-26T03:06:36;18.80;99.90
26952;DHT22;14507;52.418;13.398;2023-06-26T03:09:02;18.80;99.90
26952;DHT22;14507;52.418;13.398;2023-06-26T03:11:28;18.80;99.90
26952;DHT22;14507;52.418;13.398;2023-06-26T03:13:54;18.80;99.90
26952;DHT22;14507;52.418;13.398;2023-06-26T03:16:19;18.80;99.90
26952;DHT22;14507;52.418;13.398;2023-06-26T03:18:45;18.80;99.90
26952;DHT22;14507;52.418;13.398;2023-06-26T03:21:10;18.80;99.90
26952;DHT22;14507;52.418;13.398;2023-06-26T03:23:36;18.90;99.90
26952;DHT22;14507;52.418;13.398;2023-06-26T03:26:02;18.90;99.90
26952;DHT22;14507;52.418;13.398;2023-06-26T03:28:27;18.90;99.90
26952;DHT22;14507;52.418;13.398;2023-06-26T03:30:53;18.90;99.90
26952;DHT22;14507;52.418;13.398;2023-06-26T03:33:18;18.90;99.90
26952;DHT22;14507;52.418;13.398;2023-06-26T03:35:44;18.90;99.90
26952;DHT22;14507;52.418;13.398;2023-06-26T03:38:10;18.90;99.90
26952;DHT22;14507;52.418;13.398;2023-06-26T03:40:35;18.90;99.90
26952;DHT22;14507;52.418;13.398;2023-06-26T03:43:01;19.00;99.90
26952;DHT22;14507;52.418;13.398;2023-06-26T03:45:27;19.00;99.90
26952;DHT22;14507;52.418;13.398;2023-06-26T03:47:52;19.10;99.90
26952;DHT22;14507;52.418;13.398;2023-06-26T03:50:18;19.10;99.90
26952;DHT22;14507;52.418;13.398;2023-06-26T03:52:44;19.20;99.90
26952;DHT22;14507;52.418;13.398;2023-06-26T03:55:10;19.20;99.90
26952;DHT22;14507;52.418;13.398;2023-06-26T03:57:35;19.20;99.90
26952;DHT22;14507;52.418;13.398;2023-06-26T04:00:01;19.30;99.90
26952;DHT22;14507;52.418;13.398;2023-06-26T04:02:31;19.40;99.90
26952;DHT22;14507;52.418;13.398;2023-06-26T04:04:56;19.40;99.90
26952;DHT22;14507;52.418;13.398;2023-06-26T04:07:22;19.50;99.90
26952;DHT22;14507;52.418;13.398;2023-06-26T04:09:48;19.50;99.90
26952;DHT22;14507;52.418;13.398;2023-06-26T04:12:13;19.60;99.90
26952;DHT22;14507;52.418;13.398;2023-06-26T04:14:39;19.60;99.90
26952;DHT22;14507;52.418;13.398;2023-06-26T04:17:05;19.70;99.90
26952;DHT22;14507;52.418;13.398;2023-06-26T04:19:30;19.80;99.90
26952;DHT22;14507;52.418;13.398;2023-06-26T04:21:56;19.80;99.90
26952;DHT22;14507;52.418;13.398;2023-06-26T04:24:22;19.80;99.90
26952;DHT22;14507;52.418;13.398;2023-06-26T04:26:48;19.80;99.90
26952;DHT22;14507;52.418;13.398;2023-06-26T04:29:13;19.90;99.90
26952;DHT22;14507;52.418;13.398;2023-06-26T04:31:39;19.90;99.90
26952;DHT22;14507;52.418;13.398;2023-06-26T04:34:05;19.90;99.90
26952;DHT22;14507;52.418;13.398;2023-06-26T04:36:30;20.00;99.90
26952;DHT22;14507;52.418;13.398;2023-06-26T04:38:59;20.00;99.90
26952;DHT22;14507;52.418;13.398;2023-06-26T04:41:25;20.10;99.90
26952;DHT22;14507;52.418;13.398;2023-06-26T04:43:50;20.10;99.90
26952;DHT22;14507;52.418;13.398;2023-06-26T04:46:16;20.10;99.90
26952;DHT22;14507;52.418;13.398;2023-06-26T04:48:42;20.20;99.90
26952;DHT22;14507;52.418;13.398;2023-06-26T04:51:10;20.30;99.90
26952;DHT22;14507;52.418;13.398;2023-06-26T04:53:35;20.30;99.90
26952;DHT22;14507;52.418;13.398;2023-06-26T04:56:01;20.40;99.90
26952;DHT22;14507;52.418;13.398;2023-06-26T04:58:27;20.50;99.90
26952;DHT22;14507;52.418;13.398;2023-06-26T05:00:52;20.60;99.90
26952;DHT22;14507;52.418;13.398;2023-06-26T05:03:18;20.70;99.90
26952;DHT22;14507;52.418;13.398;2023-06-26T05:05:44;20.80;99.90
26952;DHT22;14507;52.418;13.398;2023-06-26T05:08:24;21.00;99.90
26952;DHT22;14507;52.418;13.398;2023-06-26T05:10:52;21.20;99.90
26952;DHT22;14507;52.418;13.398;2023-06-26T05:13:19;21.40;99.90
26952;DHT22;14507;52.418;13.398;2023-06-26T05:15:46;21.50;99.90
26952;DHT22;14507;52.418;13.398;2023-06-26T05:18:12;21.60;99.90
26952;DHT22;14507;52.418;13.398;2023-06-26T05:20:38;21.70;99.90
26952;DHT22;14507;52.418;13.398;2023-06-26T05:23:04;21.70;99.90
26952;DHT22;14507;52.418;13.398;2023-06-26T05:25:30;21.60;99.90
26952;DHT22;14507;52.418;13.398;2023-06-26T05:27:57;21.70;99.90
26952;DHT22;14507;52.418;13.398;2023-06-26T05:30:26;21.70;99.90
26952;DHT22;14507;52.418;13.398;2023-06-26T05:32:53;21.80;99.90
26952;DHT22;14507;52.418;13.398;2023-06-26T05:35:22;21.90;99.90
26952;DHT22;14507;52.418;13.398;2023-06-26T05:37:50;22.20;99.90
26952;DHT22;14507;52.418;13.398;2023-06-26T05:40:17;22.40;99.90
26952;DHT22;14507;52.418;13.398;2023-06-26T05:42:43;22.40;99.90
26952;DHT22;14507;52.418;13.398;2023-06-26T05:45:10;22.50;99.90
26952;DHT22;14507;52.418;13.398;2023-06-26T05:47:35;22.70;99.90
26952;DHT22;14507;52.418;13.398;2023-06-26T05:50:01;23.10;99.90
26952;DHT22;14507;52.418;13.398;2023-06-26T05:52:28;23.50;99.90
26952;DHT22;14507;52.418;13.398;2023-06-26T05:54:53;24.00;99.90
26952;DHT22;14507;52.418;13.398;2023-06-26T05:57:20;24.40;99.90
26952;DHT22;14507;52.418;13.398;2023-06-26T05:59:46;24.80;99.90
26952;DHT22;14507;52.418;13.398;2023-06-26T06:02:12;25.20;99.90
26952;DHT22;14507;52.418;13.398;2023-06-26T06:04:38;25.60;99.90
26952;DHT22;14507;52.418;13.398;2023-06-26T06:07:05;25.90;99.90
26952;DHT22;14507;52.418;13.398;2023-06-26T06:09:30;26.20;99.90
26952;DHT22;14507;52.418;13.398;2023-06-26T06:11:56;26.50;99.90
26952;DHT22;14507;52.418;13.398;2023-06-26T06:14:22;26.80;98.50
26952;DHT22;14507;52.418;13.398;2023-06-26T06:16:47;27.20;98.40
26952;DHT22;14507;52.418;13.398;2023-06-26T06:19:13;27.40;96.30
26952;DHT22;14507;52.418;13.398;2023-06-26T06:21:39;27.60;97.80
26952;DHT22;14507;52.418;13.398;2023-06-26T06:24:05;28.00;96.80
26952;DHT22;14507;52.418;13.398;2023-06-26T06:26:32;28.40;95.70
26952;DHT22;14507;52.418;13.398;2023-06-26T06:28:58;28.70;95.20
26952;DHT22;14507;52.418;13.398;2023-06-26T06:31:23;29.00;95.90
26952;DHT22;14507;52.418;13.398;2023-06-26T06:33:49;29.30;94.20
26952;DHT22;14507;52.418;13.398;2023-06-26T06:36:15;29.50;94.60
26952;DHT22;14507;52.418;13.398;2023-06-26T06:38:43;29.80;93.80
26952;DHT22;14507;52.418;13.398;2023-06-26T06:41:09;30.00;93.80
26952;DHT22;14507;52.418;13.398;2023-06-26T06:43:35;30.20;93.70
26952;DHT22;14507;52.418;13.398;2023-06-26T06:46:01;30.40;92.20
26952;DHT22;14507;52.418;13.398;2023-06-26T06:48:27;30.60;91.80
26952;DHT22;14507;52.418;13.398;2023-06-26T06:50:52;30.70;91.00
26952;DHT22;14507;52.418;13.398;2023-06-26T06:53:18;30.70;91.00
26952;DHT22;14507;52.418;13.398;2023-06-26T06:55:48;30.70;92.70
26952;DHT22;14507;52.418;13.398;2023-06-26T06:58:14;30.70;91.00
26952;DHT22;14507;52.418;13.398;2023-06-26T07:00:42;30.70;90.90
26952;DHT22;14507;52.418;13.398;2023-06-26T07:03:07;30.70;91.20
26952;DHT22;14507;52.418;13.398;2023-06-26T07:05:33;31.10;91.20
26952;DHT22;14507;52.418;13.398;2023-06-26T07:07:59;31.40;90.90
26952;DHT22;14507;52.418;13.398;2023-06-26T07:10:24;31.70;90.80
26952;DHT22;14507;52.418;13.398;2023-06-26T07:12:50;32.10;90.20
26952;DHT22;14507;52.418;13.398;2023-06-26T07:15:16;32.50;88.50
26952;DHT22;14507;52.418;13.398;2023-06-26T07:17:42;32.90;86.70
26952;DHT22;14507;52.418;13.398;2023-06-26T07:20:08;33.40;84.90
26952;DHT22;14507;52.418;13.398;2023-06-26T07:22:35;33.50;85.10
26952;DHT22;14507;52.418;13.398;2023-06-26T07:25:01;33.90;83.80
26952;DHT22;14507;52.418;13.398;2023-06-26T07:27:27;34.30;80.20
26952;DHT22;14507;52.418;13.398;2023-06-26T07:29:53;34.50;81.30
26952;DHT22;14507;52.418;13.398;2023-06-26T07:32:18;34.90;81.40
26952;DHT22;14507;52.418;13.398;2023-06-26T07:34:44;35.20;79.50
26952;DHT22;14507;52.418;13.398;2023-06-26T07:37:10;35.50;77.10
26952;DHT22;14507;52.418;13.398;2023-06-26T07:39:35;35.70;73.00
26952;DHT22;14507;52.418;13.398;2023-06-26T07:42:01;35.70;75.30
26952;DHT22;14507;52.418;13.398;2023-06-26T07:44:27;35.70;75.10
26952;DHT22;14507;52.418;13.398;2023-06-26T07:46:52;35.90;72.30
26952;DHT22;14507;52.418;13.398;2023-06-26T07:49:18;35.90;71.30
26952;DHT22;14507;52.418;13.398;2023-06-26T07:51:44;36.00;73.50
26952;DHT22;14507;52.418;13.398;2023-06-26T07:54:09;36.10;71.60
26952;DHT22;14507;52.418;13.398;2023-06-26T07:56:52;36.40;73.70
26952;DHT22;14507;52.418;13.398;2023-06-26T07:59:19;36.50;68.90
26952;DHT22;14507;52.418;13.398;2023-06-26T08:01:46;36.40;67.60
26952;DHT22;14507;52.418;13.398;2023-06-26T08:04:11;36.20;68.80
26952;DHT22;14507;52.418;13.398;2023-06-26T08:06:37;36.00;68.30
26952;DHT22;14507;52.418;13.398;2023-06-26T08:09:06;35.90;68.30
26952;DHT22;14507;52.418;13.398;2023-06-26T08:11:33;36.00;69.20
26952;DHT22;14507;52.418;13.398;2023-06-26T08:13:58;36.00;67.30
26952;DHT22;14507;52.418;13.398;2023-06-26T08:16:24;36.10;64.90
26952;DHT22;14507;52.418;13.398;2023-06-26T08:18:50;36.00;67.30
26952;DHT22;14507;52.418;13.398;2023-06-26T08:21:16;36.00;67.30
26952;DHT22;14507;52.418;13.398;2023-06-26T08:23:41;36.10;68.90
26952;DHT22;14507;52.418;13.398;2023-06-26T08:26:07;36.10;67.20
26952;DHT22;14507;52.418;13.398;2023-06-26T08:28:33;36.10;67.30
26952;DHT22;14507;52.418;13.398;2023-06-26T08:30:59;36.20;67.30
26952;DHT22;14507;52.418;13.398;2023-06-26T08:33:25;36.30;65.90
26952;DHT22;14507;52.418;13.398;2023-06-26T08:35:51;36.40;66.40
26952;DHT22;14507;52.418;13.398;2023-06-26T08:38:16;36.50;67.50
26952;DHT22;14507;52.418;13.398;2023-06-26T08:40:42;36.60;65.80
26952;DHT22;14507;52.418;13.398;2023-06-26T08:43:08;36.70;64.20
26952;DHT22;14507;52.418;13.398;2023-06-26T08:45:34;36.70;62.00
26952;DHT22;14507;52.418;13.398;2023-06-26T08:48:01;36.70;65.00
26952;DHT22;14507;52.418;13.398;2023-06-26T08:50:30;36.60;64.20
26952;DHT22;14507;52.418;13.398;2023-06-26T08:53:14;36.50;63.50
26952;DHT22;14507;52.418;13.398;2023-06-26T08:55:43;36.50;65.70
26952;DHT22;14507;52.418;13.398;2023-06-26T08:58:09;36.50;63.90
26952;DHT22;14507;52.418;13.398;2023-06-26T09:00:35;36.50;65.20
26952;DHT22;14507;52.418;13.398;2023-06-26T09:03:03;36.50;65.60
26952;DHT22;14507;52.418;13.398;2023-06-26T09:05:29;36.60;65.10
26952;DHT22;14507;52.418;13.398;2023-06-26T09:07:57;36.60;63.30
26952;DHT22;14507;52.418;13.398;2023-06-26T09:10:22;36.50;62.20
26952;DHT22;14507;52.418;13.398;2023-06-26T09:12:48;36.40;63.50
26952;DHT22;14507;52.418;13.398;2023-06-26T09:15:15;36.30;64.10
26952;DHT22;14507;52.418;13.398;2023-06-26T09:17:42;36.30;62.70
26952;DHT22;14507;52.418;13.398;2023-06-26T09:20:08;36.30;64.50
26952;DHT22;14507;52.418;13.398;2023-06-26T09:22:42;36.30;60.00
26952;DHT22;14507;52.418;13.398;2023-06-26T09:25:08;35.90;62.50
26952;DHT22;14507;52.418;13.398;2023-06-26T09:27:35;35.80;62.00
26952;DHT22;14507;52.418;13.398;2023-06-26T09:30:06;35.70;66.30
26952;DHT22;14507;52.418;13.398;2023-06-26T09:32:37;35.70;64.20
26952;DHT22;14507;52.418;13.398;2023-06-26T09:35:03;35.80;64.40
26952;DHT22;14507;52.418;13.398;2023-06-26T09:37:29;35.60;62.90
26952;DHT22;14507;52.418;13.398;2023-06-26T09:39:55;35.50;64.90
26952;DHT22;14507;52.418;13.398;2023-06-26T09:42:21;35.60;66.10
26952;DHT22;14507;52.418;13.398;2023-06-26T09:44:47;35.70;66.00
26952;DHT22;14507;52.418;13.398;2023-06-26T09:47:16;35.60;64.10
26952;DHT22;14507;52.418;13.398;2023-06-26T09:49:43;35.60;64.00
26952;DHT22;14507;52.418;13.398;2023-06-26T09:52:09;35.60;65.50
26952;DHT22;14507;52.418;13.398;2023-06-26T09:54:35;35.60;67.70
26952;DHT22;14507;52.418;13.398;2023-06-26T09:57:08;35.60;63.30
26952;DHT22;14507;52.418;13.398;2023-06-26T09:59:34;35.50;63.70
26952;DHT22;14507;52.418;13.398;2023-06-26T10:02:00;35.50;66.00
26952;DHT22;14507;52.418;13.398;2023-06-26T10:04:26;35.40;64.60
26952;DHT22;14507;52.418;13.398;2023-06-26T10:06:55;35.20;62.80
26952;DHT22;14507;52.418;13.398;2023-06-26T10:09:23;35.20;64.40
26952;DHT22;14507;52.418;13.398;2023-06-26T10:12:10;35.00;63.80
26952;DHT22;14507;52.418;13.398;2023-06-26T10:14:40;35.00;64.70
26952;DHT22;14507;52.418;13.398;2023-06-26T10:17:13;34.90;61.90
26952;DHT22;14507;52.418;13.398;2023-06-26T10:19:44;34.80;63.10
26952;DHT22;14507;52.418;13.398;2023-06-26T10:22:17;34.80;66.30
26952;DHT22;14507;52.418;13.398;2023-06-26T10:24:43;34.80;64.80
26952;DHT22;14507;52.418;13.398;2023-06-26T10:27:17;34.80;65.70
26952;DHT22;14507;52.418;13.398;2023-06-26T10:29:45;34.70;63.60
26952;DHT22;14507;52.418;13.398;2023-06-26T10:32:13;34.70;64.00
26952;DHT22;14507;52.418;13.398;2023-06-26T10:34:39;34.70;63.10
26952;DHT22;14507;52.418;13.398;2023-06-26T10:37:05;34.60;64.10
26952;DHT22;14507;52.418;13.398;2023-06-26T10:39:46;34.60;65.10
26952;DHT22;14507;52.418;13.398;2023-06-26T10:42:15;34.60;61.20
26952;DHT22;14507;52.418;13.398;2023-06-26T10:44:43;34.60;64.50
26952;DHT22;14507;52.418;13.398;2023-06-26T10:47:09;34.50;64.70
26952;DHT22;14507;52.418;13.398;2023-06-26T10:49:36;34.50;66.40
26952;DHT22;14507;52.418;13.398;2023-06-26T10:52:03;34.40;63.00
26952;DHT22;14507;52.418;13.398;2023-06-26T10:54:30;34.40;62.50
26952;DHT22;14507;52.418;13.398;2023-06-26T10:56:56;34.30;64.70
26952;DHT22;14507;52.418;13.398;2023-06-26T10:59:25;34.30;66.30
26952;DHT22;14507;52.418;13.398;2023-06-26T11:04:51;34.30;63.70
26952;DHT22;14507;52.418;13.398;2023-06-26T11:10:09;34.40;62.30
26952;DHT22;14507;52.418;13.398;2023-06-26T11:12:42;34.30;62.70
26952;DHT22;14507;52.418;13.398;2023-06-26T11:15:09;34.20;63.40
26952;DHT22;14507;52.418;13.398;2023-06-26T11:17:38;34.10;61.20
26952;DHT22;14507;52.418;13.398;2023-06-26T11:20:08;34.10;65.30
26952;DHT22;14507;52.418;13.398;2023-06-26T11:22:36;34.10;65.30
26952;DHT22;14507;52.418;13.398;2023-06-26T11:25:03;34.20;63.80
26952;DHT22;14507;52.418;13.398;2023-06-26T11:27:39;34.20;68.60
26952;DHT22;14507;52.418;13.398;2023-06-26T11:30:22;34.20;65.50
26952;DHT22;14507;52.418;13.398;2023-06-26T11:32:48;34.30;64.00
26952;DHT22;14507;52.418;13.398;2023-06-26T11:35:22;34.30;63.60
26952;DHT22;14507;52.418;13.398;2023-06-26T11:37:56;34.20;63.80
26952;DHT22;14507;52.418;13.398;2023-06-26T11:40:22;34.20;64.10
26952;DHT22;14507;52.418;13.398;2023-06-26T11:42:53;34.00;63.70
26952;DHT22;14507;52.418;13.398;2023-06-26T11:45:19;34.00;62.80
26952;DHT22;14507;52.418;13.398;2023-06-26T11:47:45;33.90;64.10
26952;DHT22;14507;52.418;13.398;2023-06-26T11:50:17;33.90;65.80
26952;DHT22;14507;52.418;13.398;2023-06-26T11:52:43;34.00;63.80
26952;DHT22;14507;52.418;13.398;2023-06-26T11:55:09;33.90;63.30
26952;DHT22;14507;52.418;13.398;2023-06-26T11:57:36;33.80;63.60
26952;DHT22;14507;52.418;13.398;2023-06-26T12:00:12;33.80;63.90
26952;DHT22;14507;52.418;13.398;2023-06-26T12:02:38;33.70;63.60
26952;DHT22;14507;52.418;13.398;2023-06-26T12:05:04;33.70;64.90
26952;DHT22;14507;52.418;13.398;2023-06-26T12:07:30;33.80;63.20
26952;DHT22;14507;52.418;13.398;2023-06-26T12:09:57;33.80;64.60
26952;DHT22;14507;52.418;13.398;2023-06-26T12:12:24;33.80;64.70
26952;DHT22;14507;52.418;13.398;2023-06-26T12:14:51;33.70;66.80
26952;DHT22;14507;52.418;13.398;2023-06-26T12:17:17;33.70;63.30
26952;DHT22;14507;52.418;13.398;2023-06-26T12:19:45;33.70;64.70
26952;DHT22;14507;52.418;13.398;2023-06-26T12:22:16;33.60;62.00
26952;DHT22;14507;52.418;13.398;2023-06-26T12:24:42;33.60;65.90
26952;DHT22;14507;52.418;13.398;2023-06-26T12:27:13;33.70;65.20
26952;DHT22;14507;52.418;13.398;2023-06-26T12:29:45;33.60;65.40
26952;DHT22;14507;52.418;13.398;2023-06-26T12:32:12;33.50;65.70
26952;DHT22;14507;52.418;13.398;2023-06-26T12:34:39;33.30;65.00
26952;DHT22;14507;52.418;13.398;2023-06-26T12:37:07;33.10;65.10
26952;DHT22;14507;52.418;13.398;2023-06-26T12:39:53;33.00;66.90
26952;DHT22;14507;52.418;13.398;2023-06-26T12:42:28;33.10;65.60
26952;DHT22;14507;52.418;13.398;2023-06-26T12:44:58;33.10;65.70
26952;DHT22;14507;52.418;13.398;2023-06-26T12:47:26;33.20;69.00
26952;DHT22;14507;52.418;13.398;2023-06-26T12:49:53;33.10;66.10
26952;DHT22;14507;52.418;13.398;2023-06-26T12:52:21;33.00;66.60
26952;DHT22;14507;52.418;13.398;2023-06-26T12:54:51;33.00;69.20
26952;DHT22;14507;52.418;13.398;2023-06-26T12:57:17;32.90;66.80
26952;DHT22;14507;52.418;13.398;2023-06-26T12:59:43;33.00;69.40
26952;DHT22;14507;52.418;13.398;2023-06-26T13:02:09;33.10;69.40
26952;DHT22;14507;52.418;13.398;2023-06-26T13:04:36;33.20;65.70
26952;DHT22;14507;52.418;13.398;2023-06-26T13:07:05;33.20;66.10
26952;DHT22;14507;52.418;13.398;2023-06-26T13:09:32;33.20;69.00
26952;DHT22;14507;52.418;13.398;2023-06-26T13:11:59;33.10;66.60
26952;DHT22;14507;52.418;13.398;2023-06-26T13:14:24;33.20;67.20
26952;DHT22;14507;52.418;13.398;2023-06-26T13:16:50;33.10;65.70
26952;DHT22;14507;52.418;13.398;2023-06-26T13:19:16;33.10;65.40
26952;DHT22;14507;52.418;13.398;2023-06-26T13:21:41;33.10;67.20
26952;DHT22;14507;52.418;13.398;2023-06-26T13:24:07;33.10;67.60
26952;DHT22;14507;52.418;13.398;2023-06-26T13:26:33;33.00;68.10
26952;DHT22;14507;52.418;13.398;2023-06-26T13:28:59;33.00;67.50
26952;DHT22;14507;52.418;13.398;2023-06-26T13:31:25;32.90;69.90
26952;DHT22;14507;52.418;13.398;2023-06-26T13:33:51;32.90;66.40
26952;DHT22;14507;52.418;13.398;2023-06-26T13:36:20;32.80;67.20
26952;DHT22;14507;52.418;13.398;2023-06-26T13:38:46;32.80;66.90
26952;DHT22;14507;52.418;13.398;2023-06-26T13:41:14;32.80;66.10
26952;DHT22;14507;52.418;13.398;2023-06-26T13:43:40;32.80;65.20
26952;DHT22;14507;52.418;13.398;2023-06-26T13:46:05;32.80;67.80
26952;DHT22;14507;52.418;13.398;2023-06-26T13:48:31;32.70;66.30
26952;DHT22;14507;52.418;13.398;2023-06-26T13:50:58;32.80;67.40
26952;DHT22;14507;52.418;13.398;2023-06-26T13:53:25;33.00;67.30
26952;DHT22;14507;52.418;13.398;2023-06-26T13:55:50;33.00;66.80
26952;DHT22;14507;52.418;13.398;2023-06-26T13:58:16;33.10;66.40
26952;DHT22;14507;52.418;13.398;2023-06-26T14:00:42;33.20;66.40
26952;DHT22;14507;52.418;13.398;2023-06-26T14:03:09;33.20;67.10
26952;DHT22;14507;52.418;13.398;2023-06-26T14:05:36;33.10;65.60
26952;DHT22;14507;52.418;13.398;2023-06-26T14:08:07;32.90;65.50
26952;DHT22;14507;52.418;13.398;2023-06-26T14:10:33;32.60;65.30
26952;DHT22;14507;52.418;13.398;2023-06-26T14:12:59;32.40;65.30
26952;DHT22;14507;52.418;13.398;2023-06-26T14:15:25;32.20;65.90
26952;DHT22;14507;52.418;13.398;2023-06-26T14:17:51;32.00;66.30
26952;DHT22;14507;52.418;13.398;2023-06-26T14:20:17;31.70;66.50
26952;DHT22;14507;52.418;13.398;2023-06-26T14:22:43;31.60;67.80
26952;DHT22;14507;52.418;13.398;2023-06-26T14:25:10;31.50;68.40
26952;DHT22;14507;52.418;13.398;2023-06-26T14:27:37;31.30;69.30
26952;DHT22;14507;52.418;13.398;2023-06-26T14:30:06;31.10;72.20
26952;DHT22;14507;52.418;13.398;2023-06-26T14:32:33;30.70;76.40
26952;DHT22;14507;52.418;13.398;2023-06-26T14:34:59;30.00;83.10
26952;DHT22;14507;52.418;13.398;2023-06-26T14:37:25;29.40;88.60
26952;DHT22;14507;52.418;13.398;2023-06-26T14:39:51;28.70;91.50
26952;DHT22;14507;52.418;13.398;2023-06-26T14:42:19;27.60;92.70
26952;DHT22;14507;52.418;13.398;2023-06-26T14:44:45;27.50;92.90
26952;DHT22;14507;52.418;13.398;2023-06-26T14:47:18;27.10;94.30
26952;DHT22;14507;52.418;13.398;2023-06-26T14:49:44;26.80;96.20
26952;DHT22;14507;52.418;13.398;2023-06-26T14:52:10;26.40;97.20
26952;DHT22;14507;52.418;13.398;2023-06-26T14:54:36;26.10;98.40
26952;DHT22;14507;52.418;13.398;2023-06-26T14:57:03;25.90;99.90
26952;DHT22;14507;52.418;13.398;2023-06-26T14:59:29;25.60;99.90
26952;DHT22;14507;52.418;13.398;2023-06-26T15:01:54;25.30;99.90
26952;DHT22;14507;52.418;13.398;2023-06-26T15:04:20;25.10;99.90
26952;DHT22;14507;52.418;13.398;2023-06-26T15:06:46;24.90;99.90
26952;DHT22;14507;52.418;13.398;2023-06-26T15:09:11;24.70;99.90
26952;DHT22;14507;52.418;13.398;2023-06-26T15:11:37;24.70;99.90
26952;DHT22;14507;52.418;13.398;2023-06-26T15:14:02;24.60;99.90
26952;DHT22;14507;52.418;13.398;2023-06-26T15:16:28;24.50;99.90
26952;DHT22;14507;52.418;13.398;2023-06-26T15:18:54;24.50;99.90
26952;DHT22;14507;52.418;13.398;2023-06-26T15:21:19;24.50;99.90